createdAt,value
2022-10-21T00:00:51.045Z,1.30
2022-10-21T00:03:19.065Z,1.33
2022-10-21T00:05:47.255Z,1.27
2022-10-21T00:08:15.617Z,1.02
2022-10-21T00:10:42.952Z,0.93
2022-10-21T00:13:10.472Z,1.30
2022-10-21T00:15:37.656Z,1.23
2022-10-21T00:18:04.753Z,1.40
2022-10-21T00:20:35.943Z,1.50
2022-10-21T00:23:05.998Z,1.52
2022-10-21T00:25:33.020Z,1.48
2022-10-21T00:28:00.088Z,1.60
2022-10-21T00:30:27.156Z,1.73
2022-10-21T00:32:54.223Z,1.10
2022-10-21T00:35:21.276Z,1.55
2022-10-21T00:37:48.341Z,1.50
2022-10-21T00:40:15.741Z,1.67
2022-10-21T00:42:46.390Z,1.30
2022-10-21T00:45:28.269Z,1.55
2022-10-21T00:48:50.737Z,1.35
2022-10-21T00:51:18.516Z,1.10
2022-10-21T00:53:49.156Z,1.20
2022-10-21T00:56:26.824Z,1.38
2022-10-21T00:58:57.247Z,0.85
2022-10-21T01:01:24.543Z,1.10
2022-10-21T01:03:51.719Z,0.98
2022-10-21T01:06:21.825Z,0.90
2022-10-21T01:08:49.276Z,0.93
2022-10-21T01:11:19.265Z,1.33
2022-10-21T01:14:23.682Z,1.40
2022-10-21T01:17:20.728Z,1.13
2022-10-21T01:20:35.027Z,1.33
2022-10-21T01:23:22.274Z,1.20
2022-10-21T01:26:15.153Z,0.85
2022-10-21T01:29:00.372Z,0.93
2022-10-21T01:31:39.285Z,1.23
2022-10-21T01:34:32.321Z,0.70
2022-10-21T01:37:19.485Z,0.70
2022-10-21T01:39:50.205Z,0.93
2022-10-21T01:42:25.939Z,0.80
2022-10-21T01:45:00.625Z,0.77
2022-10-21T01:47:50.238Z,0.70
2022-10-21T01:50:22.541Z,0.77
2022-10-21T01:52:53.312Z,0.77
2022-10-21T01:55:23.845Z,0.70
2022-10-21T01:57:56.565Z,1.15
2022-10-21T02:02:56.632Z,0.98
2022-10-21T02:05:28.931Z,1.10
2022-10-21T02:07:56.299Z,0.73
2022-10-21T02:10:27.425Z,1.20
2022-10-21T02:12:58.747Z,1.35
2022-10-21T02:15:26.689Z,0.90
2022-10-21T02:18:17.366Z,1.00
2022-10-21T02:20:45.117Z,1.30
2022-10-21T02:23:15.265Z,1.33
2022-10-21T02:25:46.015Z,1.10
2022-10-21T02:28:14.135Z,0.88
2022-10-21T02:30:49.329Z,0.80
2022-10-21T02:33:23.927Z,0.80
2022-10-21T02:35:58.000Z,0.95
2022-10-21T02:38:30.323Z,1.27
2022-10-21T02:41:00.087Z,1.10
2022-10-21T02:43:35.617Z,1.15
2022-10-21T02:46:08.631Z,1.75
2022-10-21T02:48:36.936Z,1.05
2022-10-21T02:51:06.615Z,1.40
2022-10-21T02:53:34.415Z,0.88
2022-10-21T02:56:02.116Z,0.95
2022-10-21T02:58:29.481Z,1.95
2022-10-21T03:00:56.904Z,1.20
2022-10-21T03:03:24.472Z,2.05
2022-10-21T03:05:51.776Z,2.53
2022-10-21T03:08:18.864Z,3.28
2022-10-21T03:10:52.209Z,3.05
2022-10-21T03:13:21.856Z,3.95
2022-10-21T03:15:50.066Z,3.35
2022-10-21T03:18:17.979Z,2.65
2022-10-21T03:20:48.135Z,3.17
2022-10-21T03:23:15.305Z,4.57
2022-10-21T03:25:42.760Z,4.35
2022-10-21T03:28:10.039Z,4.43
2022-10-21T03:30:37.095Z,3.63
2022-10-21T03:33:04.598Z,4.13
2022-10-21T03:35:31.827Z,4.10
2022-10-21T03:37:58.952Z,4.60
2022-10-21T03:40:29.938Z,5.15
2022-10-21T03:42:58.240Z,4.43
2022-10-21T03:45:26.352Z,4.68
2022-10-21T03:47:53.510Z,4.65
2022-10-21T03:50:26.111Z,4.53
2022-10-21T03:52:54.507Z,4.72
2022-10-21T03:55:24.092Z,4.63
2022-10-21T03:57:51.751Z,4.43
2022-10-21T04:00:19.306Z,6.13
2022-10-21T04:02:46.545Z,5.00
2022-10-21T04:05:13.669Z,4.63
2022-10-21T04:07:40.854Z,5.80
2022-10-21T04:10:09.179Z,4.53
2022-10-21T04:12:36.590Z,4.30
2022-10-21T04:15:05.589Z,5.22
2022-10-21T04:17:32.821Z,4.47
2022-10-21T04:19:59.871Z,3.72
2022-10-21T04:22:27.059Z,4.72
2022-10-21T04:24:54.102Z,4.80
2022-10-21T04:27:21.194Z,3.97
2022-10-21T04:29:48.285Z,3.95
2022-10-21T04:32:15.344Z,3.72
2022-10-21T04:34:42.795Z,4.28
2022-10-21T04:37:09.856Z,4.95
2022-10-21T04:39:36.931Z,4.00
2022-10-21T04:42:04.225Z,4.03
2022-10-21T04:44:31.302Z,5.53
2022-10-21T04:46:58.458Z,4.15
2022-10-21T04:49:25.571Z,3.20
2022-10-21T04:51:52.628Z,4.82
2022-10-21T04:54:19.822Z,5.00
2022-10-21T04:56:47.140Z,4.03
2022-10-21T04:59:14.205Z,4.20
2022-10-21T05:01:41.379Z,3.42
2022-10-21T05:04:08.521Z,4.03
2022-10-21T05:06:35.592Z,4.93
2022-10-21T05:09:03.278Z,5.63
2022-10-21T05:11:30.654Z,3.50
2022-10-21T05:13:57.692Z,3.92
2022-10-21T05:16:24.904Z,3.58
2022-10-21T05:18:51.975Z,3.45
2022-10-21T05:21:19.037Z,4.50
2022-10-21T05:23:46.119Z,3.75
2022-10-21T05:26:13.223Z,5.30
2022-10-21T05:28:40.330Z,3.92
2022-10-21T05:31:07.485Z,3.97
2022-10-21T05:33:34.601Z,3.25
2022-10-21T05:36:06.759Z,3.50
2022-10-21T05:38:34.833Z,3.85
2022-10-21T05:41:01.923Z,4.20
2022-10-21T05:43:29.244Z,4.63
2022-10-21T05:45:56.812Z,3.70
2022-10-21T05:48:24.659Z,3.92
2022-10-21T05:50:54.253Z,4.03
2022-10-21T05:53:25.914Z,5.05
2022-10-21T05:56:01.424Z,4.10
2022-10-21T05:58:29.688Z,3.20
2022-10-21T06:00:57.031Z,3.58
2022-10-21T06:03:29.782Z,2.92
2022-10-21T06:05:58.278Z,2.45
2022-10-21T06:08:26.099Z,2.83
2022-10-21T06:11:08.801Z,2.65
2022-10-21T06:13:36.527Z,3.15
2022-10-21T06:18:36.586Z,2.45
2022-10-21T06:21:04.455Z,3.28
2022-10-21T06:23:32.115Z,3.90
2022-10-21T06:26:03.542Z,2.88
2022-10-21T06:28:32.879Z,3.47
2022-10-21T06:31:00.000Z,3.78
2022-10-21T06:33:27.397Z,2.83
2022-10-21T06:35:55.543Z,3.67
2022-10-21T06:38:23.249Z,3.08
2022-10-21T06:40:50.302Z,2.78
2022-10-21T06:43:17.535Z,2.70
2022-10-21T06:45:44.690Z,1.98
2022-10-21T06:48:13.542Z,2.13
2022-10-21T06:50:40.685Z,2.75
2022-10-21T06:53:07.796Z,3.38
2022-10-21T06:55:35.261Z,3.05
2022-10-21T06:58:02.329Z,2.78
2022-10-21T07:02:57.418Z,2.75
2022-10-21T07:05:24.492Z,3.08
2022-10-21T07:07:51.543Z,2.40
2022-10-21T07:10:18.711Z,2.55
2022-10-21T07:12:46.826Z,2.58
2022-10-21T07:15:14.723Z,3.05
2022-10-21T07:17:42.102Z,3.53
2022-10-21T07:20:09.388Z,2.67
2022-10-21T07:22:36.446Z,3.05
2022-10-21T07:25:03.654Z,3.40
2022-10-21T07:27:30.783Z,2.70
2022-10-21T07:29:57.833Z,3.03
2022-10-21T07:32:24.953Z,2.55
2022-10-21T07:34:51.993Z,1.95
2022-10-21T07:37:19.034Z,2.10
2022-10-21T07:39:46.112Z,1.48
2022-10-21T07:42:13.200Z,1.17
2022-10-21T07:44:40.211Z,1.42
2022-10-21T07:47:07.293Z,1.77
2022-10-21T07:49:34.323Z,1.70
2022-10-21T07:52:01.441Z,3.42
2022-10-21T07:54:28.557Z,1.73
2022-10-21T07:56:55.726Z,1.73
2022-10-21T07:59:23.030Z,1.55
2022-10-21T08:01:50.682Z,1.30
2022-10-21T08:04:20.962Z,1.25
2022-10-21T08:06:48.204Z,1.25
2022-10-21T08:09:16.044Z,1.20
2022-10-21T08:11:43.882Z,1.27
2022-10-21T08:14:11.839Z,0.82
2022-10-21T08:16:39.255Z,1.48
2022-10-21T08:19:07.414Z,1.20
2022-10-21T08:21:36.256Z,0.70
2022-10-21T08:24:04.256Z,1.30
2022-10-21T08:26:31.381Z,0.98
2022-10-21T08:31:32.071Z,1.17
2022-10-21T08:33:59.389Z,1.27
2022-10-21T08:36:26.883Z,1.02
2022-10-21T08:38:54.427Z,1.13
2022-10-21T08:41:30.681Z,1.15
2022-10-21T08:44:22.651Z,0.90
2022-10-21T08:46:55.798Z,1.60
2022-10-21T08:49:46.656Z,1.50
2022-10-21T08:52:19.666Z,1.30
2022-10-21T08:55:06.038Z,1.83
2022-10-21T08:57:35.050Z,1.40
2022-10-21T09:00:11.174Z,1.50
2022-10-21T09:02:57.298Z,1.30
2022-10-21T09:05:37.621Z,1.15
2022-10-21T09:08:21.133Z,1.58
2022-10-21T09:11:20.907Z,1.80
2022-10-21T09:13:53.815Z,1.50
2022-10-21T09:16:30.732Z,1.30
2022-10-21T09:19:21.717Z,1.23
2022-10-21T09:22:05.819Z,1.30
2022-10-21T09:24:58.655Z,1.33
2022-10-21T09:27:32.196Z,1.23
2022-10-21T09:32:39.599Z,1.27
2022-10-21T09:35:17.541Z,1.40
2022-10-21T09:37:53.281Z,1.70
2022-10-21T09:40:23.879Z,0.90
2022-10-21T09:42:58.823Z,0.90
2022-10-21T09:45:36.070Z,1.20
2022-10-21T09:48:17.869Z,0.65
2022-10-21T09:50:46.916Z,1.00
2022-10-21T09:53:21.446Z,0.88
2022-10-21T09:56:01.836Z,0.93
2022-10-21T09:58:45.477Z,0.68
2022-10-21T10:01:20.998Z,0.57
2022-10-21T10:03:51.688Z,0.70
2022-10-21T10:06:36.884Z,0.60
2022-10-21T10:09:29.537Z,0.63
2022-10-21T10:11:56.714Z,0.80
2022-10-21T10:14:39.644Z,0.63
2022-10-21T10:17:30.619Z,1.08
2022-10-21T10:20:14.676Z,0.70
2022-10-21T10:22:47.771Z,0.50
2022-10-21T10:25:14.857Z,0.90
2022-10-21T10:28:01.622Z,1.00
2022-10-21T10:30:40.807Z,0.75
2022-10-21T10:33:31.338Z,0.88
2022-10-21T10:36:09.449Z,1.00
2022-10-21T10:38:53.621Z,0.88
2022-10-21T10:41:28.512Z,1.25
2022-10-21T10:43:56.115Z,0.80
2022-10-21T10:46:32.384Z,0.80
2022-10-21T10:49:17.091Z,1.00
2022-10-21T10:51:47.108Z,1.08
2022-10-21T10:54:24.825Z,1.50
2022-10-21T10:57:02.829Z,1.05
2022-10-21T11:00:03.999Z,1.30
2022-10-21T11:02:47.346Z,1.10
2022-10-21T11:05:49.575Z,1.00
2022-10-21T11:08:34.198Z,0.75
2022-10-21T11:11:11.367Z,1.35
2022-10-21T11:13:42.138Z,0.75
2022-10-21T11:16:25.460Z,1.00
2022-10-21T11:19:19.144Z,1.10
2022-10-21T11:21:52.210Z,1.13
2022-10-21T11:24:38.000Z,1.02
2022-10-21T11:27:19.033Z,1.33
2022-10-21T11:30:11.280Z,1.05
2022-10-21T11:33:33.985Z,1.08
2022-10-21T11:36:26.935Z,1.02
2022-10-21T11:39:03.169Z,1.77
2022-10-21T11:41:40.039Z,1.10
2022-10-21T11:44:29.443Z,1.35
2022-10-21T11:47:20.328Z,1.27
2022-10-21T11:50:11.606Z,1.00
2022-10-21T11:53:02.232Z,1.20
2022-10-21T11:55:38.810Z,2.90
2022-10-21T11:58:19.569Z,1.17
2022-10-21T12:01:15.212Z,2.00
2022-10-21T12:03:51.466Z,1.60
2022-10-21T12:06:57.068Z,1.15
2022-10-21T12:09:36.410Z,1.35
2022-10-21T12:14:58.698Z,1.58
2022-10-21T12:17:26.448Z,1.45
2022-10-21T12:20:03.877Z,1.45
2022-10-21T12:22:35.543Z,1.90
2022-10-21T12:25:08.716Z,1.70
2022-10-21T12:27:47.427Z,1.77
2022-10-21T12:30:27.285Z,1.88
2022-10-21T12:33:17.839Z,1.73
2022-10-21T12:36:11.265Z,1.98
2022-10-21T12:38:55.295Z,2.00
2022-10-21T12:41:37.575Z,1.73
2022-10-21T12:44:15.032Z,1.67
2022-10-21T12:46:46.088Z,2.03
2022-10-21T12:49:21.917Z,2.78
2022-10-21T12:52:10.447Z,3.22
2022-10-21T12:54:59.720Z,3.20
2022-10-21T12:57:30.925Z,2.33
2022-10-21T13:00:36.604Z,3.20
2022-10-21T13:03:12.462Z,3.20
2022-10-21T13:05:39.507Z,2.75
2022-10-21T13:08:24.476Z,2.88
2022-10-21T13:11:06.123Z,3.40
2022-10-21T13:14:17.195Z,3.08
2022-10-21T13:16:44.714Z,3.63
2022-10-21T13:19:14.770Z,3.47
2022-10-21T13:21:42.632Z,3.05
2022-10-21T13:24:12.902Z,2.80
2022-10-21T13:27:00.086Z,2.65
2022-10-21T13:29:38.412Z,3.08
2022-10-21T13:32:14.531Z,3.40
2022-10-21T13:34:55.244Z,2.83
2022-10-21T13:37:33.649Z,3.20
2022-10-21T13:40:05.589Z,3.22
2022-10-21T13:42:38.483Z,2.85
2022-10-21T13:45:25.412Z,3.08
2022-10-21T13:48:19.864Z,2.83
2022-10-21T13:50:50.075Z,2.40
2022-10-21T13:53:17.083Z,2.67
2022-10-21T13:56:01.520Z,3.00
2022-10-21T13:58:30.829Z,2.70
2022-10-21T14:01:07.801Z,2.60
2022-10-21T14:03:35.482Z,2.78
2022-10-21T14:06:03.366Z,2.50
2022-10-21T14:08:43.407Z,2.38
2022-10-21T14:11:22.643Z,2.45
2022-10-21T14:13:51.290Z,2.50
2022-10-21T14:16:34.940Z,3.03
2022-10-21T14:19:08.287Z,2.60
2022-10-21T14:21:43.375Z,3.25
2022-10-21T14:24:28.683Z,2.42
2022-10-21T14:26:57.225Z,2.38
2022-10-21T14:29:28.043Z,2.73
2022-10-21T14:31:56.909Z,3.45
2022-10-21T14:34:26.745Z,2.20
2022-10-21T14:37:13.041Z,2.00
2022-10-21T14:39:40.176Z,2.00
2022-10-21T14:42:17.999Z,2.40
2022-10-21T14:44:46.296Z,2.83
2022-10-21T14:47:19.145Z,2.75
2022-10-21T14:49:52.769Z,3.25
2022-10-21T14:52:22.947Z,2.80
2022-10-21T14:55:00.169Z,2.50
2022-10-21T14:57:40.930Z,2.25
2022-10-21T15:00:21.343Z,3.03
2022-10-21T15:02:49.195Z,2.47
2022-10-21T15:05:36.729Z,2.47
2022-10-21T15:08:19.011Z,2.95
2022-10-21T15:10:58.682Z,2.58
2022-10-21T15:13:26.922Z,3.50
2022-10-21T15:15:57.463Z,3.08
2022-10-21T15:18:40.106Z,3.00
2022-10-21T15:21:10.479Z,2.45
2022-10-21T15:23:53.490Z,2.72
2022-10-21T15:26:29.619Z,1.90
2022-10-21T15:28:56.957Z,2.58
2022-10-21T15:31:26.329Z,3.58
2022-10-21T15:36:22.234Z,3.38
2022-10-21T15:38:49.499Z,2.15
2022-10-21T15:41:22.150Z,2.25
2022-10-21T15:43:58.802Z,2.22
2022-10-21T15:46:27.056Z,2.80
2022-10-21T15:48:54.153Z,2.50
2022-10-21T15:51:21.489Z,2.10
2022-10-21T15:53:48.643Z,3.17
2022-10-21T15:56:18.109Z,2.20
2022-10-21T15:58:45.306Z,2.03
2022-10-21T16:01:14.797Z,2.13
2022-10-21T16:03:42.562Z,2.05
2022-10-21T16:06:18.597Z,2.60
2022-10-21T16:08:46.390Z,2.70
2022-10-21T16:11:18.966Z,2.55
2022-10-21T16:16:24.574Z,2.30
2022-10-21T16:18:52.743Z,2.50
2022-10-21T16:21:21.779Z,3.78
2022-10-21T16:23:49.342Z,2.70
2022-10-21T16:26:21.473Z,3.05
2022-10-21T16:28:49.858Z,2.70
2022-10-21T16:31:17.609Z,3.40
2022-10-21T16:33:45.237Z,2.90
2022-10-21T16:36:22.186Z,2.85
2022-10-21T16:38:51.133Z,2.95
2022-10-21T16:41:20.930Z,3.15
2022-10-21T16:43:48.101Z,2.80
2022-10-21T16:46:30.016Z,2.60
2022-10-21T16:48:58.730Z,2.80
2022-10-21T16:51:30.313Z,3.13
2022-10-21T16:53:57.525Z,3.42
2022-10-21T16:56:24.665Z,3.38
2022-10-21T16:58:52.509Z,3.28
2022-10-21T17:01:23.492Z,3.58
2022-10-21T17:03:51.797Z,4.50
2022-10-21T17:06:21.438Z,3.97
2022-10-21T17:08:50.100Z,4.00
2022-10-21T17:11:23.371Z,4.17
2022-10-21T17:13:51.432Z,5.22
2022-10-21T17:16:20.066Z,4.65
2022-10-21T17:18:48.263Z,4.55
2022-10-21T17:21:25.083Z,5.65
2022-10-21T17:23:53.049Z,5.70
2022-10-21T17:26:21.164Z,4.22
2022-10-21T17:28:48.364Z,4.13
2022-10-21T17:31:18.243Z,4.50
2022-10-21T17:33:45.483Z,4.05
2022-10-21T17:36:12.921Z,4.78
2022-10-21T17:38:41.834Z,4.65
2022-10-21T17:41:10.277Z,4.38
2022-10-21T17:43:37.411Z,4.97
2022-10-21T17:46:05.142Z,3.83
2022-10-21T17:48:32.902Z,4.63
2022-10-21T17:51:01.944Z,3.67
2022-10-21T17:53:30.107Z,4.72
2022-10-21T17:55:58.149Z,4.07
2022-10-21T17:58:26.321Z,4.63
2022-10-21T18:00:56.440Z,3.70
2022-10-21T18:03:28.565Z,4.03
2022-10-21T18:05:56.235Z,4.25
2022-10-21T18:08:23.912Z,4.95
2022-10-21T18:10:56.362Z,4.25
2022-10-21T18:13:25.038Z,5.10
2022-10-21T18:15:53.161Z,4.33
2022-10-21T18:18:21.887Z,4.35
2022-10-21T18:20:49.020Z,3.90
2022-10-21T18:23:16.224Z,4.75
2022-10-21T18:25:43.309Z,5.68
2022-10-21T18:28:10.374Z,5.80
2022-10-21T18:30:49.755Z,5.45
2022-10-21T18:33:28.603Z,7.72
2022-10-21T18:35:55.863Z,7.18
2022-10-21T18:38:23.079Z,6.68
2022-10-21T18:40:56.314Z,6.40
2022-10-21T18:43:29.187Z,7.28
2022-10-21T18:45:56.802Z,7.85
2022-10-21T18:48:24.177Z,9.00
2022-10-21T18:50:51.289Z,7.18
2022-10-21T18:53:18.386Z,8.48
2022-10-21T18:55:45.457Z,8.35
2022-10-21T18:58:12.578Z,8.15
2022-10-21T19:00:39.684Z,8.43
2022-10-21T19:03:06.806Z,7.68
2022-10-21T19:05:33.918Z,8.52
2022-10-21T19:08:01.012Z,10.05
2022-10-21T19:10:28.124Z,13.25
2022-10-21T19:12:55.279Z,12.00
2022-10-21T19:15:22.401Z,14.43
2022-10-21T19:17:49.533Z,11.18
2022-10-21T19:20:16.954Z,8.88
2022-10-21T19:22:44.026Z,10.15
2022-10-21T19:25:11.209Z,10.48
2022-10-21T19:27:38.643Z,10.80
2022-10-21T19:30:06.288Z,10.23
2022-10-21T19:32:33.375Z,10.77
2022-10-21T19:35:00.434Z,9.82
2022-10-21T19:37:28.904Z,10.75
2022-10-21T19:39:56.072Z,13.43
2022-10-21T19:42:23.130Z,14.18
2022-10-21T19:44:50.562Z,13.23
2022-10-21T19:47:17.663Z,12.00
2022-10-21T19:49:44.829Z,14.00
2022-10-21T19:52:11.872Z,15.85
2022-10-21T19:54:39.087Z,13.05
2022-10-21T19:57:06.210Z,13.63
2022-10-21T19:59:33.269Z,14.65
2022-10-21T20:02:00.358Z,14.82
2022-10-21T20:04:27.524Z,15.23
2022-10-21T20:06:56.379Z,16.98
2022-10-21T20:09:23.460Z,15.45
2022-10-21T20:11:50.628Z,17.23
2022-10-21T20:14:18.447Z,14.35
2022-10-21T20:16:48.892Z,13.75
2022-10-21T20:19:16.060Z,10.75
2022-10-21T20:21:43.692Z,13.05
2022-10-21T20:24:14.603Z,13.93
2022-10-21T20:26:48.892Z,12.95
2022-10-21T20:29:16.008Z,10.25
2022-10-21T20:31:43.122Z,13.13
2022-10-21T20:34:13.325Z,12.50
2022-10-21T20:36:40.470Z,12.68
2022-10-21T20:39:07.569Z,14.82
2022-10-21T20:41:37.192Z,12.45
2022-10-21T20:44:06.377Z,9.70
2022-10-21T20:46:35.890Z,12.45
2022-10-21T20:49:06.029Z,11.98
2022-10-21T20:51:34.217Z,11.80
2022-10-21T20:54:03.803Z,14.13
2022-10-21T20:56:36.564Z,12.63
2022-10-21T20:59:05.137Z,12.48
2022-10-21T21:01:34.911Z,10.47
2022-10-21T21:04:06.043Z,9.32
2022-10-21T21:06:38.843Z,9.15
2022-10-21T21:09:43.718Z,9.27
2022-10-21T21:11:54.120Z,11.32
2022-10-21T21:14:21.262Z,7.70
2022-10-21T21:16:48.435Z,9.50
2022-10-21T21:19:15.724Z,9.45
2022-10-21T21:21:42.847Z,8.25
2022-10-21T21:24:09.954Z,7.80
2022-10-21T21:26:39.733Z,9.68
2022-10-21T21:29:08.347Z,8.30
2022-10-21T21:31:37.110Z,7.70
2022-10-21T21:34:05.113Z,10.77
2022-10-21T21:36:32.373Z,8.63
2022-10-21T21:38:59.722Z,8.32
2022-10-21T21:41:27.112Z,9.27
2022-10-21T21:43:56.453Z,8.20
2022-10-21T21:46:24.059Z,8.25
2022-10-21T21:49:05.041Z,8.10
2022-10-21T21:51:35.149Z,6.95
2022-10-21T21:56:29.849Z,8.25
2022-10-21T21:58:57.985Z,8.65
2022-10-21T22:01:27.736Z,7.93
2022-10-21T22:03:55.785Z,9.10
2022-10-21T22:08:53.889Z,9.63
2022-10-21T22:11:24.855Z,8.90
2022-10-21T22:13:52.331Z,8.45
2022-10-21T22:16:24.266Z,8.52
2022-10-21T22:18:51.479Z,7.65
2022-10-21T22:21:19.163Z,8.45
2022-10-21T22:23:48.255Z,8.35
2022-10-21T22:26:16.769Z,9.95
2022-10-21T22:28:44.695Z,10.17
2022-10-21T22:31:14.551Z,10.85
2022-10-21T22:36:16.400Z,8.52
2022-10-21T22:38:44.743Z,9.13
2022-10-21T22:41:13.055Z,8.60
2022-10-21T22:43:40.803Z,10.25
2022-10-21T22:46:29.433Z,10.70
2022-10-21T22:48:55.296Z,9.05
2022-10-21T22:51:22.409Z,8.00
2022-10-21T22:53:53.630Z,9.13
2022-10-21T22:56:25.603Z,8.85
2022-10-21T22:58:52.741Z,9.68
2022-10-21T23:01:20.145Z,8.32
2022-10-21T23:03:47.193Z,8.63
2022-10-21T23:06:14.620Z,8.32
2022-10-21T23:08:41.827Z,8.50
2022-10-21T23:11:09.082Z,8.68
2022-10-21T23:13:36.185Z,8.50
2022-10-21T23:16:03.335Z,7.97
2022-10-21T23:18:30.456Z,8.50
2022-10-21T23:20:57.504Z,9.30
2022-10-21T23:23:24.738Z,7.47
2022-10-21T23:25:51.837Z,6.50
2022-10-21T23:30:50.930Z,6.38
2022-10-21T23:33:17.983Z,5.45
2022-10-21T23:35:45.065Z,5.25
2022-10-21T23:38:12.109Z,5.15
2022-10-21T23:40:39.406Z,5.68
2022-10-21T23:43:06.484Z,5.80
2022-10-21T23:45:33.598Z,7.50
2022-10-21T23:48:00.660Z,6.18
2022-10-21T23:50:28.028Z,6.65
2022-10-21T23:52:55.099Z,4.85
2022-10-21T23:55:22.238Z,5.70
2022-10-21T23:57:49.314Z,5.32
